HLN weather

Helena Regional Airport
Helena, Montana, United States

Public forecast

Using degrees Fahrenheit for public forecast. Weather courtesy of forecast.io.

Current aviation weather report (METAR) for Helena Regional Airport

Retrieved 2020/06/03 16:53 UTC (12 minutes ago):

KHLN 031653Z 28015G19KT 10SM CLR 22/02 A3003 RMK AO2 SLP153 T02170022

Aviation forecast (TAF) for Helena Regional Airport

Retrieved 2020/06/03 12:24 UTC (5 hours ago):

TAF KHLN 031122Z 0312/0412 VRB06KT P6SM BKN180 FM031600 28013G26KT P6SM SCT080 BKN150 FM040100 30015KT P6SM FEW100 SCT150 FM040400 VRB04KT P6SM SCT100 BKN150